»·PEaware :: N9401L KPSP-KSAN

N9401L :: KPSP-KSAN

FLIGHT INFORMATION

Flight Status: Arrived
Operator: Privately registered:
United States
More flights under this callsign
Pilot: Juan D. (11620)
Aircraft: PIPER PA-28R-201 ARROW
(P28R)
More flights by this aircraft type
Origin: KPSP Palm Springs Intl
United States
Destination: KSAN San Diego Intl-Lindbergh
United States
More flights between these airports :: More routes between these airports
Route: +CATH1 PSP TRM V514 MZB
File this flight plan on PilotEdge
Remarks:
Altitude:
(Current/Filed)
12,000ft
Speed:
(Current/Filed)
130kts
Departed: 03-Nov-18 05:47 PM
Arrived: 03-Nov-18 06:46 PM
Distance/Time
Traveled:
74nm/0:59
Distance/Time
To Go:
Arrived

Flight Plot

Page will automatically refresh every two minutes.

Flight plan parsing failed; only flown route is shown


Map Options




Map Legend


Flown Route
Filed Route
Departure Airport
Arrival Airport
Navaid (VOR, NDB)
Fix

Horizontal Profiles

Position Reports

Time Latitude Longitude Heading Altitude Ground
Speed
03-Nov-18 17:08 33.822419 -116.497492 55 480ft 0kts
03-Nov-18 17:09 33.822419 -116.497492 55 480ft 0kts
03-Nov-18 17:10 33.822419 -116.497492 55 480ft 0kts
03-Nov-18 17:11 33.822419 -116.497492 55 480ft 0kts
03-Nov-18 17:12 33.822419 -116.497492 55 480ft 0kts
03-Nov-18 17:13 33.822419 -116.497492 55 480ft 0kts
03-Nov-18 17:14 33.822419 -116.497492 55 480ft 0kts
03-Nov-18 17:15 33.822419 -116.497492 55 480ft 0kts
03-Nov-18 17:16 33.822419 -116.497492 55 480ft 0kts
03-Nov-18 17:17 33.822419 -116.497492 55 480ft 0kts
03-Nov-18 17:18 33.822419 -116.497492 55 480ft 0kts
03-Nov-18 17:19 33.822419 -116.497492 55 480ft 0kts
03-Nov-18 17:20 33.822419 -116.497492 55 480ft 0kts
03-Nov-18 17:21 33.822419 -116.497492 55 480ft 0kts
03-Nov-18 17:22 33.822419 -116.497492 55 480ft 0kts
03-Nov-18 17:23 33.822419 -116.497492 55 480ft 0kts
03-Nov-18 17:24 33.822419 -116.497492 55 480ft 0kts
03-Nov-18 17:25 33.822419 -116.497492 55 480ft 0kts
03-Nov-18 17:26 33.822419 -116.497492 55 480ft 0kts
03-Nov-18 17:27 33.822419 -116.497492 55 480ft 0kts
03-Nov-18 17:28 33.822419 -116.497492 55 480ft 0kts
03-Nov-18 17:29 33.822419 -116.497492 55 480ft 0kts
03-Nov-18 17:30 33.822419 -116.497492 55 480ft 0kts
03-Nov-18 17:31 33.822419 -116.497492 55 480ft 0kts
03-Nov-18 17:32 33.822419 -116.497492 55 480ft 0kts
03-Nov-18 17:33 33.822419 -116.497492 55 480ft 0kts
03-Nov-18 17:34 33.822419 -116.497492 55 480ft 0kts
03-Nov-18 17:35 33.822419 -116.497492 55 480ft 0kts
03-Nov-18 17:36 33.822419 -116.497492 55 480ft 0kts
03-Nov-18 17:37 33.822419 -116.497492 55 480ft 0kts
03-Nov-18 17:38 33.822419 -116.497492 55 480ft 0kts
03-Nov-18 17:39 33.822419 -116.497492 55 480ft 0kts
03-Nov-18 17:40 33.822419 -116.497492 55 480ft 0kts
03-Nov-18 17:41 33.822419 -116.497492 55 480ft 0kts
03-Nov-18 17:41 33.822419 -116.497492 55 480ft 0kts
03-Nov-18 17:43 33.822419 -116.497492 55 480ft 0kts
03-Nov-18 17:44 33.822419 -116.497492 55 480ft 0kts
03-Nov-18 17:44 33.822419 -116.497444 96 480ft 1kts
03-Nov-18 17:46 33.820596 -116.495567 159 480ft 11kts
03-Nov-18 17:46 33.819281 -116.497005 231 480ft 0kts
03-Nov-18 17:48 33.819281 -116.497005 231 480ft 0kts
03-Nov-18 17:48 33.819281 -116.497005 231 480ft 0kts
03-Nov-18 17:49 33.825583 -116.503731 322 585ft 89kts
03-Nov-18 17:50 33.846480 -116.521647 322 1720ft 94kts
03-Nov-18 17:51 33.867368 -116.539881 321 2838ft 93kts
03-Nov-18 17:52 33.887210 -116.559702 326 3843ft 97kts
03-Nov-18 17:53 33.901065 -116.538779 101 4757ft 104kts
03-Nov-18 17:54 33.892863 -116.505537 112 5656ft 104kts
03-Nov-18 17:55 33.882646 -116.472007 112 6466ft 109kts
03-Nov-18 17:56 33.871976 -116.437497 112 7242ft 111kts
03-Nov-18 17:57 33.854323 -116.407758 142 7945ft 113kts
03-Nov-18 17:58 33.831175 -116.382609 142 8668ft 113kts
03-Nov-18 17:59 33.807388 -116.356631 141 9318ft 117kts
03-Nov-18 18:00 33.782953 -116.329954 140 9939ft 120kts
03-Nov-18 18:01 33.758154 -116.302896 140 10519ft 122kts
03-Nov-18 18:02 33.732650 -116.275090 139 11072ft 125kts
03-Nov-18 18:03 33.706749 -116.246877 137 11597ft 126kts
03-Nov-18 18:04 33.680383 -116.218172 136 12019ft 136kts
03-Nov-18 18:05 33.649738 -116.184180 135 12000ft 157kts
03-Nov-18 18:06 33.612325 -116.175524 218 11996ft 144kts
03-Nov-18 18:07 33.580094 -116.202593 224 11997ft 143kts
03-Nov-18 18:08 33.547776 -116.230981 224 11984ft 143kts
03-Nov-18 18:09 33.515444 -116.259368 224 11997ft 143kts
03-Nov-18 18:10 33.483127 -116.287716 224 11997ft 143kts
03-Nov-18 18:11 33.451156 -116.315734 224 11997ft 143kts
03-Nov-18 18:12 33.418705 -116.344145 224 11997ft 143kts
03-Nov-18 18:14 33.386567 -116.372256 224 11997ft 143kts
03-Nov-18 18:15 33.354321 -116.400500 225 11997ft 143kts
03-Nov-18 18:16 33.322243 -116.428801 225 12015ft 143kts
03-Nov-18 18:17 33.290249 -116.456846 224 12026ft 143kts
03-Nov-18 18:18 33.257573 -116.484496 224 12044ft 143kts
03-Nov-18 18:19 33.225451 -116.512316 224 12064ft 143kts
03-Nov-18 18:20 33.193154 -116.540414 225 12079ft 143kts
03-Nov-18 18:21 33.160997 -116.568393 225 12090ft 143kts
03-Nov-18 18:22 33.123422 -116.587041 193 12042ft 155kts
03-Nov-18 18:23 33.080748 -116.592308 190 12044ft 154kts
03-Nov-18 18:24 33.040185 -116.606550 220 11765ft 158kts
03-Nov-18 18:25 33.003875 -116.637132 221 11291ft 159kts
03-Nov-18 18:26 32.968465 -116.668447 220 10851ft 158kts
03-Nov-18 18:27 32.933642 -116.700508 222 10448ft 157kts
03-Nov-18 18:28 32.899618 -116.732608 222 10070ft 155kts
03-Nov-18 18:29 32.864626 -116.764803 206 9451ft 163kts
03-Nov-18 18:30 32.817729 -116.774914 192 8369ft 172kts
03-Nov-18 18:31 32.771134 -116.784066 192 7422ft 168kts
03-Nov-18 18:32 32.725284 -116.793356 191 6526ft 166kts
03-Nov-18 18:33 32.680207 -116.802287 191 5693ft 162kts
03-Nov-18 18:34 32.636792 -116.811330 192 5077ft 157kts
03-Nov-18 18:35 32.607410 -116.793257 74 5050ft 143kts
03-Nov-18 18:36 32.639071 -116.791796 330 5054ft 134kts
03-Nov-18 18:37 32.672230 -116.812393 330 5049ft 134kts
03-Nov-18 18:38 32.689074 -116.844841 264 5044ft 133kts
03-Nov-18 18:39 32.685528 -116.887899 254 5040ft 133kts
03-Nov-18 18:40 32.674385 -116.926880 252 5042ft 133kts
03-Nov-18 18:41 32.679259 -116.965608 285 4382ft 149kts
03-Nov-18 18:42 32.688010 -117.001843 286 3855ft 149kts
03-Nov-18 18:43 32.696612 -117.037030 286 3272ft 152kts
03-Nov-18 18:44 32.704975 -117.071194 286 2761ft 153kts
03-Nov-18 18:45 32.713324 -117.105953 286 2144ft 161kts
03-Nov-18 18:46 32.721089 -117.139316 282 905ft 104kts
03-Nov-18 18:47 32.726096 -117.160367 288 461ft 66kts
03-Nov-18 18:48 32.730721 -117.178307 285 137ft 63kts
03-Nov-18 18:49 32.733859 -117.190638 308 20ft 20kts
03-Nov-18 18:50 32.734801 -117.190511 63 20ft 0kts
03-Nov-18 18:51 32.734651 -117.189432 101 20ft 17kts
03-Nov-18 18:52 32.733131 -117.183033 105 20ft 31kts
03-Nov-18 18:53 32.733401 -117.178606 97 20ft 0kts

Navigation Log

Ident Type
Flight plan parsing failed, navigation log unavailable